Tim Quigg — WDB6570 — position and weather

sailwx.info

Track history (hours):
 
Tides and Currents Weather Stations Pressure Air Temp Water Temp Dewpoint Dewpoint Depression Visibility Wind Speed Wind Dir Waves Ship Positions

Tim Quigg

Owner: Harley Marine Services, Inc, Seattle, WA. More information available from US FCC via Universal Licensing System and Coast Guard Vessel Documentation Center.

Last reported at 2014-Nov-22 06:12 UTC. Time now 2014-Nov-22 10:34 UTC.
Position N 33°43' W 118°14'.

; draft 7.5 m.

Type: Tug. MMSI: 366926740.

Date/timePositionNaut miles runAvg speedWind from/ knotsBaromVisibWave heightAir tempDewpointWater temp
2014-Nov-22 06:12N 33°43' W 118°14'1 1.0
2014-Nov-22 05:31N 33°44' W 118°13'1 0.3
2014-Nov-22 01:24N 33°45' W 118°12'2 2.3
2014-Nov-22 00:31N 33°44' W 118°15'1 0.2
2014-Nov-21 19:24N 33°44' W 118°16'0 0.0
2014-Nov-21 18:18N 33°44' W 118°16'0 0.4
2014-Nov-21 17:24N 33°43' W 118°16'1 1.2
2014-Nov-21 16:34N 33°44' W 118°15'2 1.6
2014-Nov-21 15:32N 33°45' W 118°13'1 0.6
2014-Nov-21 14:33N 33°45' W 118°13'3 2.4
2014-Nov-21 13:24N 33°44' W 118°16'0 0.0
2014-Nov-21 11:25N 33°44' W 118°16'0 0.0
2014-Nov-21 08:26N 33°44' W 118°16'3 2.9
2014-Nov-21 07:24N 33°45' W 118°12'0 0.6
2014-Nov-21 06:33N 33°45' W 118°12'1 0.6
2014-Nov-21 04:10N 33°44' W 118°13'1 2.3
2014-Nov-21 03:34N 33°45' W 118°12'0 0.0
2014-Nov-21 02:18N 33°45' W 118°13'0 0.1
2014-Nov-21 01:26N 33°45' W 118°12'3 1.0
2014-Nov-20 22:20N 33°44' W 118°16'1 1.1
2014-Nov-20 21:29N 33°44' W 118°17'1 1.1
2014-Nov-20 20:34N 33°45' W 118°16'1 0.6
2014-Nov-20 19:34N 33°45' W 118°16'2 1.5
2014-Nov-20 18:25N 33°44' W 118°16'1 0.3
2014-Nov-20 15:23N 33°45' W 118°17'1 0.4
2014-Nov-20 12:18N 33°44' W 118°16'1 1.7
2014-Nov-20 11:32N 33°45' W 118°16'3 1.0
2014-Nov-20 09:06N 33°43' W 118°14'1 0.6
2014-Nov-20 06:34N 33°44' W 118°16'0 0.0
2014-Nov-20 05:15N 33°44' W 118°16'0 0.0
2014-Nov-20 04:33N 33°44' W 118°16'0 0.0
2014-Nov-20 03:33N 33°44' W 118°16'0 0.0
2014-Nov-20 02:33N 33°44' W 118°16'0 0.0
2014-Nov-20 01:33N 33°44' W 118°16'0 0.0
2014-Nov-20 00:34N 33°44' W 118°16'0 0.0
2014-Nov-19 23:33N 33°44' W 118°16'0 0.0
2014-Nov-19 22:33N 33°44' W 118°16'0 0.0
2014-Nov-19 21:34N 33°44' W 118°16'0 0.0
2014-Nov-19 20:31N 33°44' W 118°16'0 0.1
2014-Nov-19 18:34N 33°44' W 118°15'1 1.2
2014-Nov-19 17:32N 33°45' W 118°17'2 1.2
2014-Nov-19 15:28N 33°45' W 118°14'2 2.6
2014-Nov-19 14:31N 33°43' W 118°11'2 2.4
2014-Nov-19 13:33N 33°45' W 118°13'1 1.3
2014-Nov-19 12:25N 33°44' W 118°14'2 2.1
2014-Nov-19 11:33N 33°44' W 118°16'0 0.0
2014-Nov-19 10:34N 33°44' W 118°16'0 0.0
2014-Nov-19 09:34N 33°44' W 118°16'2 2.2
2014-Nov-19 08:34N 33°44' W 118°13'2 2.1
2014-Nov-19 07:33N 33°44' W 118°16'0 0.0
2014-Nov-19 06:34N 33°44' W 118°16'0 0.0
2014-Nov-19 05:33N 33°44' W 118°16'4 3.6
2014-Nov-19 04:33N 33°47' W 118°13'2 1.7
2014-Nov-19 03:34N 33°46' W 118°15'2 1.3
2014-Nov-19 02:26N 33°46' W 118°16'2 1.9
2014-Nov-19 01:31N 33°44' W 118°16'0 0.5
2014-Nov-19 00:34N 33°44' W 118°16'2 2.4
2014-Nov-18 23:34N 33°44' W 118°13'1 1.2
2014-Nov-18 22:29N 33°45' W 118°12'0 0.0
2014-Nov-18 21:07N 33°45' W 118°12'1 1.5
2014-Nov-18 20:34N 33°46' W 118°13'3 3.4
2014-Nov-18 19:33N 33°43' W 118°16'2 2.1
2014-Nov-18 18:33N 33°45' W 118°16'1 1.2
2014-Nov-18 17:33N 33°44' W 118°16'0 0.0
2014-Nov-18 16:33N 33°44' W 118°16'0 0.1
2014-Nov-18 15:33N 33°44' W 118°16'0 0.0
2014-Nov-18 14:26N 33°44' W 118°16'0 0.0
2014-Nov-18 13:30N 33°44' W 118°16'0 0.0
2014-Nov-18 12:31N 33°44' W 118°16'1 1.0
2014-Nov-18 11:33N 33°43' W 118°16'3 2.9
2014-Nov-18 10:33N 33°46' W 118°16'0 0.0
2014-Nov-18 09:33N 33°46' W 118°16'2 2.0
2014-Nov-18 08:34N 33°44' W 118°16'0 0.0
2014-Nov-18 07:33N 33°44' W 118°16'0 0.0
2014-Nov-18 06:34N 33°44' W 118°16'0 0.0
2014-Nov-18 05:34N 33°44' W 118°16'0 0.1
2014-Nov-18 04:34N 33°44' W 118°16'1 0.8
2014-Nov-18 03:33N 33°44' W 118°17'1 1.4
2014-Nov-18 02:33N 33°45' W 118°16'1 0.8
2014-Nov-18 01:34N 33°46' W 118°17'2 1.9
2014-Nov-18 00:32N 33°44' W 118°16'0 0.0
2014-Nov-17 23:34N 33°44' W 118°16'0 0.0
2014-Nov-17 22:04N 33°44' W 118°16'0 0.0
2014-Nov-17 21:27N 33°44' W 118°16'0 0.0
2014-Nov-17 20:33N 33°44' W 118°16'0 0.0
2014-Nov-17 19:28N 33°44' W 118°16'4 0.9
2014-Nov-17 15:28N 33°43' W 118°11'5 2.5
2014-Nov-17 13:33N 33°45' W 118°17'2 0.1
2014-Nov-16 18:25N 33°44' W 118°16'0 0.2
2014-Nov-16 17:28N 33°44' W 118°16'5 3.8
2014-Nov-16 16:12N 33°44' W 118°10'2 1.2
2014-Nov-16 14:19N 33°45' W 118°12'1 1.9
2014-Nov-16 13:34N 33°46' W 118°13'2 1.5
2014-Nov-16 12:19N 33°44' W 118°12'0 0.3
2014-Nov-16 11:31N 33°44' W 118°12'0 0.5
2014-Nov-16 10:33N 33°45' W 118°12'1 1.4
2014-Nov-16 09:33N 33°44' W 118°13'2 0.4
2014-Nov-16 04:31N 33°44' W 118°16'0 0.0
2014-Nov-16 00:33N 33°44' W 118°16'1 1.3
2014-Nov-15 23:33N 33°45' W 118°16'3 2.1
2014-Nov-15 22:17N 33°43' W 118°14'3 4.7
2014-Nov-15 21:34N 33°46' W 118°13'0 0.4
2014-Nov-15 20:33N 33°46' W 118°13'0 0.2
2014-Nov-15 19:33N 33°46' W 118°13'3 1.4
2014-Nov-15 17:18N 33°44' W 118°16'4 2.3
2014-Nov-15 15:32N 33°45' W 118°11'2 0.7
2014-Nov-15 13:16N 33°45' W 118°13'0 0.0
2014-Nov-15 10:05N 33°45' W 118°13'0 0.0
2014-Nov-15 09:07N 33°45' W 118°13'3 4.7
2014-Nov-15 08:31N 33°44' W 118°09'0 0.3
2014-Nov-15 07:32N 33°44' W 118°10'3 0.9
2014-Nov-15 04:07N 33°45' W 118°13'1 2.2
2014-Nov-15 03:34N 33°46' W 118°13'2 2.3
2014-Nov-15 02:31N 33°45' W 118°16'1 0.5
2014-Nov-15 01:34N 33°46' W 118°16'0 0.0
2014-Nov-15 00:34N 33°46' W 118°16'5 4.6
2014-Nov-14 23:33N 33°44' W 118°10'4 3.8
2014-Nov-14 22:33N 33°44' W 118°06'0 0.4
2014-Nov-14 21:33N 33°44' W 118°06'5 4.7
2014-Nov-14 20:33N 33°44' W 118°12'0 0.0
2014-Nov-14 19:34N 33°44' W 118°12'3 2.7
2014-Nov-14 18:30N 33°43' W 118°15'1 1.6
2014-Nov-14 17:33N 33°43' W 118°13'1 1.4
2014-Nov-14 16:33N 33°45' W 118°13'1 0.5
2014-Nov-14 15:31N 33°45' W 118°13'0 0.3
2014-Nov-14 14:34N 33°45' W 118°13'2 1.1
2014-Nov-14 12:33N 33°43' W 118°11'2 2.2
2014-Nov-14 11:33N 33°45' W 118°13'1 1.2
2014-Nov-14 10:34N 33°46' W 118°13'3 3.2
2014-Nov-14 09:33N 33°43' W 118°11'1 0.6
2014-Nov-14 08:33N 33°44' W 118°12'4 2.0
2014-Nov-14 06:32N 33°45' W 118°16'2 0.5
2014-Nov-14 03:24N 33°44' W 118°16'2 1.9
2014-Nov-14 02:33N 33°45' W 118°16'1 0.5
2014-Nov-14 01:34N 33°45' W 118°16'0 0.4
2014-Nov-14 00:34N 33°46' W 118°16'0 0.0
2014-Nov-13 23:33N 33°46' W 118°16'0 0.2
2014-Nov-13 22:34N 33°46' W 118°16'3 3.0
2014-Nov-13 21:31N 33°43' W 118°14'3 2.8
2014-Nov-13 20:33N 33°45' W 118°12'0 0.2
2014-Nov-13 18:33N 33°45' W 118°12'3 0.7
2014-Nov-13 14:22N 33°44' W 118°16'1 1.1
2014-Nov-13 13:33N 33°43' W 118°16'3 3.3
2014-Nov-13 12:34N 33°45' W 118°12'0 0.0
2014-Nov-13 11:34N 33°45' W 118°12'3 2.2
2014-Nov-13 10:14N 33°44' W 118°16'0 0.0
2014-Nov-13 07:18N 33°44' W 118°16'1 0.2
2014-Nov-13 01:23N 33°45' W 118°16'1 1.1
2014-Nov-13 00:33N 33°46' W 118°15'0 0.1
2014-Nov-12 23:34N 33°46' W 118°16'0 0.0
2014-Nov-12 22:34N 33°46' W 118°16'0 0.0
2014-Nov-12 21:34N 33°46' W 118°16'3 2.2
2014-Nov-12 20:14N 33°43' W 118°14'3 4.0
2014-Nov-12 19:34N 33°45' W 118°12'3 1.4
2014-Nov-12 17:19N 33°44' W 118°16'3 1.4
2014-Nov-12 15:33N 33°44' W 118°13'3 2.4
2014-Nov-12 14:29N 33°44' W 118°16'1 1.5
2014-Nov-12 13:34N 33°45' W 118°16'1 1.2
2014-Nov-12 12:31N 33°44' W 118°16'1 0.2
2014-Nov-12 09:20N 33°44' W 118°16'2 2.8
2014-Nov-12 08:34N 33°46' W 118°16'2 2.0
2014-Nov-12 07:26N 33°44' W 118°16'  
Track history (hours):
 
Tides and Currents Weather Stations Pressure Air Temp Water Temp Dewpoint Dewpoint Depression Visibility Wind Speed Wind Dir Waves Ship Positions

Tim Quigg

Owner: Harley Marine Services, Inc, Seattle, WA. More information available from US FCC via Universal Licensing System and Coast Guard Vessel Documentation Center.

Last reported at 2014-Nov-22 06:12 UTC. Time now 2014-Nov-22 10:34 UTC.
Position N 33°43' W 118°14'.

; draft 7.5 m.

Type: Tug. MMSI: 366926740.

Date/timePositionNaut miles runAvg speedWind from/ knotsBaromVisibWave heightAir tempDewpointWater temp
2014-Nov-22 06:12N 33°43' W 118°14'1 1.0
2014-Nov-22 05:31N 33°44' W 118°13'1 0.3
2014-Nov-22 01:24N 33°45' W 118°12'2 2.3
2014-Nov-22 00:31N 33°44' W 118°15'1 0.2
2014-Nov-21 19:24N 33°44' W 118°16'0 0.0
2014-Nov-21 18:18N 33°44' W 118°16'0 0.4
2014-Nov-21 17:24N 33°43' W 118°16'1 1.2
2014-Nov-21 16:34N 33°44' W 118°15'2 1.6
2014-Nov-21 15:32N 33°45' W 118°13'1 0.6
2014-Nov-21 14:33N 33°45' W 118°13'3 2.4
2014-Nov-21 13:24N 33°44' W 118°16'0 0.0
2014-Nov-21 11:25N 33°44' W 118°16'0 0.0
2014-Nov-21 08:26N 33°44' W 118°16'3 2.9
2014-Nov-21 07:24N 33°45' W 118°12'0 0.6
2014-Nov-21 06:33N 33°45' W 118°12'1 0.6
2014-Nov-21 04:10N 33°44' W 118°13'1 2.3
2014-Nov-21 03:34N 33°45' W 118°12'0 0.0
2014-Nov-21 02:18N 33°45' W 118°13'0 0.1
2014-Nov-21 01:26N 33°45' W 118°12'3 1.0
2014-Nov-20 22:20N 33°44' W 118°16'1 1.1
2014-Nov-20 21:29N 33°44' W 118°17'1 1.1
2014-Nov-20 20:34N 33°45' W 118°16'1 0.6
2014-Nov-20 19:34N 33°45' W 118°16'2 1.5
2014-Nov-20 18:25N 33°44' W 118°16'1 0.3
2014-Nov-20 15:23N 33°45' W 118°17'1 0.4
2014-Nov-20 12:18N 33°44' W 118°16'1 1.7
2014-Nov-20 11:32N 33°45' W 118°16'3 1.0
2014-Nov-20 09:06N 33°43' W 118°14'1 0.6
2014-Nov-20 06:34N 33°44' W 118°16'0 0.0
2014-Nov-20 05:15N 33°44' W 118°16'0 0.0
2014-Nov-20 04:33N 33°44' W 118°16'0 0.0
2014-Nov-20 03:33N 33°44' W 118°16'0 0.0
2014-Nov-20 02:33N 33°44' W 118°16'0 0.0
2014-Nov-20 01:33N 33°44' W 118°16'0 0.0
2014-Nov-20 00:34N 33°44' W 118°16'0 0.0
2014-Nov-19 23:33N 33°44' W 118°16'0 0.0
2014-Nov-19 22:33N 33°44' W 118°16'0 0.0
2014-Nov-19 21:34N 33°44' W 118°16'0 0.0
2014-Nov-19 20:31N 33°44' W 118°16'0 0.1
2014-Nov-19 18:34N 33°44' W 118°15'1 1.2
2014-Nov-19 17:32N 33°45' W 118°17'2 1.2
2014-Nov-19 15:28N 33°45' W 118°14'2 2.6
2014-Nov-19 14:31N 33°43' W 118°11'2 2.4
2014-Nov-19 13:33N 33°45' W 118°13'1 1.3
2014-Nov-19 12:25N 33°44' W 118°14'2 2.1
2014-Nov-19 11:33N 33°44' W 118°16'0 0.0
2014-Nov-19 10:34N 33°44' W 118°16'0 0.0
2014-Nov-19 09:34N 33°44' W 118°16'2 2.2
2014-Nov-19 08:34N 33°44' W 118°13'2 2.1
2014-Nov-19 07:33N 33°44' W 118°16'0 0.0
2014-Nov-19 06:34N 33°44' W 118°16'0 0.0
2014-Nov-19 05:33N 33°44' W 118°16'4 3.6
2014-Nov-19 04:33N 33°47' W 118°13'2 1.7
2014-Nov-19 03:34N 33°46' W 118°15'2 1.3
2014-Nov-19 02:26N 33°46' W 118°16'2 1.9
2014-Nov-19 01:31N 33°44' W 118°16'0 0.5
2014-Nov-19 00:34N 33°44' W 118°16'2 2.4
2014-Nov-18 23:34N 33°44' W 118°13'1 1.2
2014-Nov-18 22:29N 33°45' W 118°12'0 0.0
2014-Nov-18 21:07N 33°45' W 118°12'1 1.5
2014-Nov-18 20:34N 33°46' W 118°13'3 3.4
2014-Nov-18 19:33N 33°43' W 118°16'2 2.1
2014-Nov-18 18:33N 33°45' W 118°16'1 1.2
2014-Nov-18 17:33N 33°44' W 118°16'0 0.0
2014-Nov-18 16:33N 33°44' W 118°16'0 0.1
2014-Nov-18 15:33N 33°44' W 118°16'0 0.0
2014-Nov-18 14:26N 33°44' W 118°16'0 0.0
2014-Nov-18 13:30N 33°44' W 118°16'0 0.0
2014-Nov-18 12:31N 33°44' W 118°16'1 1.0
2014-Nov-18 11:33N 33°43' W 118°16'3 2.9
2014-Nov-18 10:33N 33°46' W 118°16'0 0.0
2014-Nov-18 09:33N 33°46' W 118°16'2 2.0
2014-Nov-18 08:34N 33°44' W 118°16'0 0.0
2014-Nov-18 07:33N 33°44' W 118°16'0 0.0
2014-Nov-18 06:34N 33°44' W 118°16'0 0.0
2014-Nov-18 05:34N 33°44' W 118°16'0 0.1
2014-Nov-18 04:34N 33°44' W 118°16'1 0.8
2014-Nov-18 03:33N 33°44' W 118°17'1 1.4
2014-Nov-18 02:33N 33°45' W 118°16'1 0.8
2014-Nov-18 01:34N 33°46' W 118°17'2 1.9
2014-Nov-18 00:32N 33°44' W 118°16'0 0.0
2014-Nov-17 23:34N 33°44' W 118°16'0 0.0
2014-Nov-17 22:04N 33°44' W 118°16'0 0.0
2014-Nov-17 21:27N 33°44' W 118°16'0 0.0
2014-Nov-17 20:33N 33°44' W 118°16'0 0.0
2014-Nov-17 19:28N 33°44' W 118°16'4 0.9
2014-Nov-17 15:28N 33°43' W 118°11'5 2.5
2014-Nov-17 13:33N 33°45' W 118°17'2 0.1
2014-Nov-16 18:25N 33°44' W 118°16'0 0.2
2014-Nov-16 17:28N 33°44' W 118°16'5 3.8
2014-Nov-16 16:12N 33°44' W 118°10'2 1.2
2014-Nov-16 14:19N 33°45' W 118°12'1 1.9
2014-Nov-16 13:34N 33°46' W 118°13'2 1.5
2014-Nov-16 12:19N 33°44' W 118°12'0 0.3
2014-Nov-16 11:31N 33°44' W 118°12'0 0.5
2014-Nov-16 10:33N 33°45' W 118°12'1 1.4
2014-Nov-16 09:33N 33°44' W 118°13'2 0.4
2014-Nov-16 04:31N 33°44' W 118°16'0 0.0
2014-Nov-16 00:33N 33°44' W 118°16'1 1.3
2014-Nov-15 23:33N 33°45' W 118°16'3 2.1
2014-Nov-15 22:17N 33°43' W 118°14'3 4.7
2014-Nov-15 21:34N 33°46' W 118°13'0 0.4
2014-Nov-15 20:33N 33°46' W 118°13'0 0.2
2014-Nov-15 19:33N 33°46' W 118°13'3 1.4
2014-Nov-15 17:18N 33°44' W 118°16'4 2.3
2014-Nov-15 15:32N 33°45' W 118°11'2 0.7
2014-Nov-15 13:16N 33°45' W 118°13'0 0.0
2014-Nov-15 10:05N 33°45' W 118°13'0 0.0
2014-Nov-15 09:07N 33°45' W 118°13'3 4.7
2014-Nov-15 08:31N 33°44' W 118°09'0 0.3
2014-Nov-15 07:32N 33°44' W 118°10'3 0.9
2014-Nov-15 04:07N 33°45' W 118°13'1 2.2
2014-Nov-15 03:34N 33°46' W 118°13'2 2.3
2014-Nov-15 02:31N 33°45' W 118°16'1 0.5
2014-Nov-15 01:34N 33°46' W 118°16'0 0.0
2014-Nov-15 00:34N 33°46' W 118°16'5 4.6
2014-Nov-14 23:33N 33°44' W 118°10'4 3.8
2014-Nov-14 22:33N 33°44' W 118°06'0 0.4
2014-Nov-14 21:33N 33°44' W 118°06'5 4.7
2014-Nov-14 20:33N 33°44' W 118°12'0 0.0
2014-Nov-14 19:34N 33°44' W 118°12'3 2.7
2014-Nov-14 18:30N 33°43' W 118°15'1 1.6
2014-Nov-14 17:33N 33°43' W 118°13'1 1.4
2014-Nov-14 16:33N 33°45' W 118°13'1 0.5
2014-Nov-14 15:31N 33°45' W 118°13'0 0.3
2014-Nov-14 14:34N 33°45' W 118°13'2 1.1
2014-Nov-14 12:33N 33°43' W 118°11'2 2.2
2014-Nov-14 11:33N 33°45' W 118°13'1 1.2
2014-Nov-14 10:34N 33°46' W 118°13'3 3.2
2014-Nov-14 09:33N 33°43' W 118°11'1 0.6
2014-Nov-14 08:33N 33°44' W 118°12'4 2.0
2014-Nov-14 06:32N 33°45' W 118°16'2 0.5
2014-Nov-14 03:24N 33°44' W 118°16'2 1.9
2014-Nov-14 02:33N 33°45' W 118°16'1 0.5
2014-Nov-14 01:34N 33°45' W 118°16'0 0.4
2014-Nov-14 00:34N 33°46' W 118°16'0 0.0
2014-Nov-13 23:33N 33°46' W 118°16'0 0.2
2014-Nov-13 22:34N 33°46' W 118°16'3 3.0
2014-Nov-13 21:31N 33°43' W 118°14'3 2.8
2014-Nov-13 20:33N 33°45' W 118°12'0 0.2
2014-Nov-13 18:33N 33°45' W 118°12'3 0.7
2014-Nov-13 14:22N 33°44' W 118°16'1 1.1
2014-Nov-13 13:33N 33°43' W 118°16'3 3.3
2014-Nov-13 12:34N 33°45' W 118°12'0 0.0
2014-Nov-13 11:34N 33°45' W 118°12'3 2.2
2014-Nov-13 10:14N 33°44' W 118°16'0 0.0
2014-Nov-13 07:18N 33°44' W 118°16'1 0.2
2014-Nov-13 01:23N 33°45' W 118°16'1 1.1
2014-Nov-13 00:33N 33°46' W 118°15'0 0.1
2014-Nov-12 23:34N 33°46' W 118°16'0 0.0
2014-Nov-12 22:34N 33°46' W 118°16'0 0.0
2014-Nov-12 21:34N 33°46' W 118°16'3 2.2
2014-Nov-12 20:14N 33°43' W 118°14'3 4.0
2014-Nov-12 19:34N 33°45' W 118°12'3 1.4
2014-Nov-12 17:19N 33°44' W 118°16'3 1.4
2014-Nov-12 15:33N 33°44' W 118°13'3 2.4
2014-Nov-12 14:29N 33°44' W 118°16'1 1.5
2014-Nov-12 13:34N 33°45' W 118°16'1 1.2
2014-Nov-12 12:31N 33°44' W 118°16'1 0.2
2014-Nov-12 09:20N 33°44' W 118°16'2 2.8
2014-Nov-12 08:34N 33°46' W 118°16'2 2.0
2014-Nov-12 07:26N 33°44' W 118°16'  

Dump ship's entire track history